Avon, Colorado
Current Conditions -  °F | °C
As of 4:50 PM on Sunday 21 Dec 2014 (Local Time) from KEGE Reporting Station
Rain Showers Rain Showers  
Wind Chill: 31°   Ceiling: 3000
Heat Index: 36°   Visibility: 8mi
Dew Point: 28°   Wind: 6mph
Humidity: 75%   Direction: 320°NW
Pressure: 29.82"   Gusts: NA
Location:  39.63°N, 106.52°W
Report Text: KEGE 212350Z 32005KT 8SM VCSH FEW025 BKN030 OVC060 02/M02 A2982
Loading
Personal Weather Stations






























Interactive Weather Map New forecast layout! Learn more

10-Day Weather Forecast

Advertisements
Track Severe Weather on mobile